createdAt,value
2023-05-19T00:01:31.335Z,92.87
2023-05-19T00:04:02.922Z,93.20
2023-05-19T00:06:33.365Z,93.26
2023-05-19T00:09:02.677Z,93.21
2023-05-19T00:11:30.469Z,93.38
2023-05-19T00:13:59.414Z,92.80
2023-05-19T00:16:29.464Z,93.28
2023-05-19T00:18:58.445Z,92.99
2023-05-19T00:21:26.014Z,93.22
2023-05-19T00:23:54.905Z,92.95
2023-05-19T00:26:23.333Z,93.31
2023-05-19T00:28:51.060Z,92.87
2023-05-19T00:31:18.537Z,93.35
2023-05-19T00:33:47.439Z,92.85
2023-05-19T00:36:15.950Z,93.91
2023-05-19T00:38:43.312Z,93.33
2023-05-19T00:41:12.447Z,93.17
2023-05-19T00:43:42.052Z,93.35
2023-05-19T00:46:11.239Z,92.74
2023-05-19T00:48:38.520Z,93.22
2023-05-19T00:51:06.796Z,92.51
2023-05-19T00:53:35.478Z,93.44
2023-05-19T00:56:03.897Z,92.38
2023-05-19T00:58:33.977Z,93.78
2023-05-19T01:01:05.292Z,94.45
2023-05-19T01:03:35.779Z,93.71
2023-05-19T01:06:07.523Z,93.85
2023-05-19T01:08:37.415Z,93.62
2023-05-19T01:11:06.228Z,93.04
2023-05-19T01:13:35.961Z,93.14
2023-05-19T01:16:09.863Z,92.42
2023-05-19T01:18:46.488Z,92.54
2023-05-19T01:22:03.281Z,92.64
2023-05-19T01:24:50.315Z,94.18
2023-05-19T01:27:39.037Z,94.68
2023-05-19T01:30:30.682Z,92.63
2023-05-19T01:33:00.754Z,92.41
2023-05-19T01:35:29.541Z,91.78
2023-05-19T01:37:58.591Z,92.55
2023-05-19T01:40:27.877Z,92.34
2023-05-19T01:42:57.836Z,92.27
2023-05-19T01:45:26.046Z,92.68
2023-05-19T01:47:57.471Z,92.28
2023-05-19T01:50:25.077Z,92.11
2023-05-19T01:52:52.660Z,92.03
2023-05-19T01:55:21.358Z,92.26
2023-05-19T01:58:00.727Z,92.44
2023-05-19T02:00:34.813Z,92.81
2023-05-19T02:03:21.631Z,92.69
2023-05-19T02:05:56.494Z,92.88
2023-05-19T02:08:27.920Z,92.74
2023-05-19T02:11:00.992Z,92.68
2023-05-19T02:13:32.229Z,93.03
2023-05-19T02:16:05.529Z,92.59
2023-05-19T02:18:35.427Z,92.59
2023-05-19T02:21:02.710Z,92.79
2023-05-19T02:23:29.925Z,92.37
2023-05-19T02:25:57.226Z,92.30
2023-05-19T02:28:28.639Z,91.83
2023-05-19T02:30:55.978Z,92.19
2023-05-19T02:33:26.159Z,92.34
2023-05-19T02:35:55.097Z,92.05
2023-05-19T02:38:22.506Z,93.39
2023-05-19T02:40:51.161Z,92.61
2023-05-19T02:43:18.488Z,92.71
2023-05-19T02:45:46.090Z,92.53
2023-05-19T02:48:13.705Z,92.75
2023-05-19T02:50:41.206Z,92.94
2023-05-19T02:53:09.951Z,93.09
2023-05-19T02:55:37.564Z,93.21
2023-05-19T02:58:05.401Z,93.44
2023-05-19T03:00:32.958Z,92.95
2023-05-19T03:03:03.022Z,93.22
2023-05-19T03:05:31.399Z,92.75
2023-05-19T03:07:58.741Z,92.68
2023-05-19T03:10:27.447Z,92.88
2023-05-19T03:12:57.232Z,92.93
2023-05-19T03:15:24.552Z,93.30
2023-05-19T03:17:52.161Z,93.12
2023-05-19T03:20:19.606Z,93.11
2023-05-19T03:22:47.060Z,93.57
2023-05-19T03:25:14.626Z,93.30
2023-05-19T03:27:43.536Z,93.26
2023-05-19T03:30:12.129Z,93.12
2023-05-19T03:32:40.450Z,92.75
2023-05-19T03:35:08.384Z,92.67
2023-05-19T03:37:35.715Z,92.50
2023-05-19T03:40:03.993Z,92.66
2023-05-19T03:42:31.706Z,92.72
2023-05-19T03:45:02.125Z,92.77
2023-05-19T03:47:29.456Z,92.75
2023-05-19T03:49:56.945Z,92.55
2023-05-19T03:52:25.160Z,92.58
2023-05-19T03:54:55.972Z,92.66
2023-05-19T03:57:23.377Z,92.46
2023-05-19T03:59:53.404Z,92.75
2023-05-19T04:02:25.174Z,92.65
2023-05-19T04:04:54.446Z,92.72
2023-05-19T04:07:21.760Z,93.05
2023-05-19T04:09:49.579Z,93.30
2023-05-19T04:12:16.972Z,92.72
2023-05-19T04:14:44.212Z,92.90
2023-05-19T04:17:12.015Z,92.51
2023-05-19T04:19:46.573Z,92.80
2023-05-19T04:22:14.015Z,92.03
2023-05-19T04:24:41.821Z,92.08
2023-05-19T04:27:12.064Z,92.48
2023-05-19T04:29:40.811Z,92.61
2023-05-19T04:32:08.628Z,92.73
2023-05-19T04:34:36.069Z,92.20
2023-05-19T04:37:04.710Z,92.36
2023-05-19T04:39:32.277Z,92.33
2023-05-19T04:42:00.132Z,92.10
2023-05-19T04:44:27.360Z,91.94
2023-05-19T04:46:58.142Z,92.37
2023-05-19T04:49:27.232Z,91.94
2023-05-19T04:51:55.913Z,91.71
2023-05-19T04:54:24.634Z,92.38
2023-05-19T04:56:51.935Z,92.70
2023-05-19T04:59:19.184Z,91.96
2023-05-19T05:01:46.447Z,91.41
2023-05-19T05:04:13.999Z,91.52
2023-05-19T05:06:47.848Z,91.83
2023-05-19T05:09:17.804Z,91.64
2023-05-19T05:11:47.269Z,91.63
2023-05-19T05:14:17.784Z,91.76
2023-05-19T05:16:45.972Z,91.13
2023-05-19T05:19:14.161Z,91.97
2023-05-19T05:21:41.913Z,91.62
2023-05-19T05:24:10.771Z,92.12
2023-05-19T05:26:38.775Z,91.79
2023-05-19T05:29:10.628Z,91.87
2023-05-19T05:31:40.839Z,91.77
2023-05-19T05:34:08.095Z,91.92
2023-05-19T05:36:35.358Z,92.06
2023-05-19T05:39:03.136Z,91.89
2023-05-19T05:41:35.418Z,91.58
2023-05-19T05:44:12.169Z,91.72
2023-05-19T05:46:40.173Z,90.46
2023-05-19T05:49:08.616Z,91.40
2023-05-19T05:51:36.724Z,91.32
2023-05-19T05:54:12.045Z,91.25
2023-05-19T05:56:41.319Z,90.76
2023-05-19T05:59:10.028Z,90.92
2023-05-19T06:01:37.472Z,90.92
2023-05-19T06:04:05.201Z,91.00
2023-05-19T06:06:32.992Z,91.12
2023-05-19T06:09:00.339Z,90.59
2023-05-19T06:11:28.983Z,90.65
2023-05-19T06:14:00.742Z,90.10
2023-05-19T06:16:33.534Z,90.55
2023-05-19T06:19:07.005Z,90.67
2023-05-19T06:21:39.081Z,90.14
2023-05-19T06:24:06.993Z,91.02
2023-05-19T06:26:38.952Z,90.01
2023-05-19T06:29:10.527Z,89.51
2023-05-19T06:31:47.479Z,89.66
2023-05-19T06:34:17.840Z,89.01
2023-05-19T06:36:55.290Z,89.37
2023-05-19T06:39:28.207Z,88.75
2023-05-19T06:41:55.575Z,88.65
2023-05-19T06:44:22.980Z,88.81
2023-05-19T06:46:51.788Z,88.79
2023-05-19T06:49:19.196Z,88.18
2023-05-19T06:52:02.686Z,89.02
2023-05-19T06:54:29.956Z,88.14
2023-05-19T06:56:57.207Z,87.96
2023-05-19T06:59:24.489Z,87.76
2023-05-19T07:01:53.456Z,87.70
2023-05-19T07:04:21.622Z,87.73
2023-05-19T07:06:50.463Z,88.25
2023-05-19T07:09:19.839Z,87.83
2023-05-19T07:11:47.618Z,87.88
2023-05-19T07:14:15.160Z,87.79
2023-05-19T07:16:44.101Z,88.60
2023-05-19T07:19:12.869Z,87.84
2023-05-19T07:21:40.212Z,86.74
2023-05-19T07:24:07.699Z,86.82
2023-05-19T07:26:34.990Z,86.77
2023-05-19T07:29:07.524Z,86.31
2023-05-19T07:31:34.926Z,86.96
2023-05-19T07:34:03.281Z,86.12
2023-05-19T07:36:49.732Z,86.53
2023-05-19T07:39:19.554Z,86.05
2023-05-19T07:42:30.607Z,86.42
2023-05-19T07:45:03.321Z,85.76
2023-05-19T07:47:39.631Z,86.25
2023-05-19T07:50:10.025Z,85.23
2023-05-19T07:52:38.674Z,84.47
2023-05-19T07:55:06.566Z,84.48
2023-05-19T07:57:33.995Z,84.37
2023-05-19T08:00:07.906Z,84.06
2023-05-19T08:02:35.870Z,85.08
2023-05-19T08:05:03.734Z,84.89
2023-05-19T08:07:32.417Z,83.78
2023-05-19T08:10:01.459Z,83.60
2023-05-19T08:12:31.365Z,84.46
2023-05-19T08:15:01.026Z,83.31
2023-05-19T08:17:28.872Z,83.28
2023-05-19T08:19:56.177Z,82.52
2023-05-19T08:22:23.415Z,82.82
2023-05-19T08:24:51.916Z,82.27
2023-05-19T08:27:21.181Z,82.53
2023-05-19T08:29:48.999Z,82.26
2023-05-19T08:32:17.499Z,82.55
2023-05-19T08:34:44.787Z,82.56
2023-05-19T08:37:14.274Z,82.08
2023-05-19T08:39:41.737Z,81.29
2023-05-19T08:42:10.070Z,81.52
2023-05-19T08:44:40.254Z,81.20
2023-05-19T08:47:13.524Z,82.13
2023-05-19T08:49:47.655Z,82.28
2023-05-19T08:52:25.530Z,81.87
2023-05-19T08:55:01.511Z,81.64
2023-05-19T08:57:29.324Z,81.36
2023-05-19T08:59:58.901Z,81.86
2023-05-19T09:02:27.674Z,82.29
2023-05-19T09:04:58.064Z,80.78
2023-05-19T09:07:26.330Z,80.51
2023-05-19T09:09:53.729Z,79.37
2023-05-19T09:12:21.410Z,79.31
2023-05-19T09:14:49.005Z,77.74
2023-05-19T09:17:19.646Z,77.64
2023-05-19T09:19:50.306Z,77.52
2023-05-19T09:22:20.905Z,78.49
2023-05-19T09:24:49.755Z,75.57
2023-05-19T09:27:24.097Z,75.97
2023-05-19T09:29:51.438Z,76.55
2023-05-19T09:32:29.079Z,75.89
2023-05-19T09:34:57.197Z,76.97
2023-05-19T09:37:24.890Z,76.05
2023-05-19T09:39:53.382Z,74.88
2023-05-19T09:42:26.011Z,76.61
2023-05-19T09:45:03.179Z,74.69
2023-05-19T09:47:36.996Z,75.71
2023-05-19T09:50:06.736Z,75.30
2023-05-19T09:52:36.487Z,76.64
2023-05-19T09:55:05.177Z,74.51
2023-05-19T09:57:38.663Z,74.60
2023-05-19T10:00:25.944Z,74.33
2023-05-19T10:02:57.507Z,75.57
2023-05-19T10:05:25.381Z,75.82
2023-05-19T10:07:54.654Z,75.94
2023-05-19T10:10:23.054Z,75.41
2023-05-19T10:13:09.782Z,74.93
2023-05-19T10:15:57.295Z,74.24
2023-05-19T10:18:45.507Z,72.49
2023-05-19T10:21:15.908Z,73.26
2023-05-19T10:23:46.223Z,73.39
2023-05-19T10:26:17.413Z,74.62
2023-05-19T10:28:49.063Z,73.85
2023-05-19T10:31:21.799Z,72.86
2023-05-19T10:34:07.308Z,72.41
2023-05-19T10:36:46.039Z,75.42
2023-05-19T10:39:19.148Z,73.87
2023-05-19T10:41:59.728Z,73.45
2023-05-19T10:44:37.137Z,72.76
2023-05-19T10:47:12.583Z,74.72
2023-05-19T10:49:41.699Z,74.71
2023-05-19T10:52:22.157Z,73.82
2023-05-19T10:54:54.813Z,72.86
2023-05-19T10:57:32.298Z,71.98
2023-05-19T11:00:11.814Z,71.48
2023-05-19T11:02:41.368Z,71.68
2023-05-19T11:05:11.141Z,72.37
2023-05-19T11:07:41.578Z,71.27
2023-05-19T11:10:09.603Z,72.94
2023-05-19T11:12:45.687Z,71.92
2023-05-19T11:15:17.630Z,71.79
2023-05-19T11:17:48.843Z,71.13
2023-05-19T11:20:26.478Z,73.25
2023-05-19T11:23:10.262Z,72.36
2023-05-19T11:25:45.210Z,73.24
2023-05-19T11:28:13.730Z,73.28
2023-05-19T11:30:46.694Z,72.97
2023-05-19T11:33:14.359Z,72.51
2023-05-19T11:35:45.278Z,71.54
2023-05-19T11:38:14.097Z,72.22
2023-05-19T11:40:46.574Z,71.09
2023-05-19T11:43:13.880Z,70.09
2023-05-19T11:45:41.110Z,69.67
2023-05-19T11:48:11.634Z,70.69
2023-05-19T11:50:46.225Z,72.09
2023-05-19T11:53:14.446Z,69.09
2023-05-19T11:55:46.403Z,68.35
2023-05-19T11:58:14.181Z,69.69
2023-05-19T12:00:44.882Z,70.11
2023-05-19T12:03:12.329Z,71.39
2023-05-19T12:05:44.881Z,68.85
2023-05-19T12:08:16.273Z,69.97
2023-05-19T12:10:43.603Z,67.49
2023-05-19T12:13:11.183Z,66.06
2023-05-19T12:15:39.274Z,66.90
2023-05-19T12:18:07.562Z,64.83
2023-05-19T12:20:38.102Z,64.84
2023-05-19T12:23:11.962Z,60.67
2023-05-19T12:25:39.387Z,60.25
2023-05-19T12:28:07.399Z,59.65
2023-05-19T12:30:35.455Z,55.73
2023-05-19T12:33:03.525Z,60.38
2023-05-19T12:35:34.249Z,57.58
2023-05-19T12:38:05.871Z,57.26
2023-05-19T12:40:36.004Z,58.88
2023-05-19T12:43:04.267Z,56.51
2023-05-19T12:45:35.165Z,55.82
2023-05-19T12:48:03.817Z,54.17
2023-05-19T12:50:31.771Z,54.21
2023-05-19T12:53:03.831Z,54.56
2023-05-19T12:55:31.207Z,54.75
2023-05-19T12:57:59.990Z,54.32
2023-05-19T13:00:32.622Z,53.69
2023-05-19T13:03:01.689Z,52.86
2023-05-19T13:05:30.991Z,51.79
2023-05-19T13:07:59.554Z,55.56
2023-05-19T13:10:27.784Z,58.45
2023-05-19T13:12:55.871Z,58.85
2023-05-19T13:15:29.711Z,60.91
2023-05-19T13:17:57.058Z,62.18
2023-05-19T13:20:26.375Z,62.28
2023-05-19T13:22:56.119Z,62.48
2023-05-19T13:25:23.737Z,61.41
2023-05-19T13:27:51.219Z,63.10
2023-05-19T13:30:19.192Z,62.99
2023-05-19T13:32:47.971Z,66.79
2023-05-19T13:35:15.967Z,64.31
2023-05-19T13:37:43.434Z,63.77
2023-05-19T13:40:11.733Z,64.30
2023-05-19T13:42:39.230Z,65.84
2023-05-19T13:45:07.591Z,65.76
2023-05-19T13:47:34.906Z,66.70
2023-05-19T13:50:05.781Z,65.20
2023-05-19T13:52:33.676Z,63.44
2023-05-19T13:55:00.976Z,64.81
2023-05-19T13:57:28.286Z,65.31
2023-05-19T14:00:01.573Z,66.41
2023-05-19T14:02:31.212Z,64.43
2023-05-19T14:04:58.712Z,65.01
2023-05-19T14:07:28.393Z,66.86
2023-05-19T14:09:55.700Z,66.49
2023-05-19T14:12:27.794Z,64.93
2023-05-19T14:15:02.317Z,67.55
2023-05-19T14:17:29.754Z,66.95
2023-05-19T14:19:57.029Z,67.46
2023-05-19T14:22:24.317Z,68.78
2023-05-19T14:24:52.947Z,66.41
2023-05-19T14:27:20.172Z,68.00
2023-05-19T14:29:48.918Z,67.07
2023-05-19T14:32:16.749Z,68.63
2023-05-19T14:34:44.037Z,65.33
2023-05-19T14:37:11.399Z,64.18
2023-05-19T14:39:38.687Z,63.93
2023-05-19T14:42:07.568Z,63.09
2023-05-19T14:44:34.907Z,63.37
2023-05-19T14:47:02.594Z,64.69
2023-05-19T14:49:30.031Z,64.12
2023-05-19T14:51:57.283Z,64.74
2023-05-19T14:54:24.540Z,65.36
2023-05-19T14:56:51.851Z,66.63
2023-05-19T14:59:21.786Z,67.06
2023-05-19T15:01:49.106Z,66.66
2023-05-19T15:04:16.399Z,65.71
2023-05-19T15:06:44.312Z,66.34
2023-05-19T15:09:14.653Z,65.97
2023-05-19T15:11:41.963Z,65.68
2023-05-19T15:14:09.200Z,66.61
2023-05-19T15:16:37.921Z,67.07
2023-05-19T15:19:05.320Z,65.85
2023-05-19T15:21:32.634Z,66.55
2023-05-19T15:23:59.811Z,66.38
2023-05-19T15:26:29.541Z,66.86
2023-05-19T15:28:56.974Z,67.44
2023-05-19T15:31:24.354Z,67.00
2023-05-19T15:33:52.944Z,66.70
2023-05-19T15:36:20.400Z,67.34
2023-05-19T15:38:47.636Z,66.56
2023-05-19T15:41:14.898Z,67.12
2023-05-19T15:43:42.090Z,66.71
2023-05-19T15:46:09.454Z,66.71
2023-05-19T15:48:36.760Z,66.85
2023-05-19T15:51:05.799Z,66.42
2023-05-19T15:53:33.041Z,65.38
2023-05-19T15:56:00.664Z,66.19
2023-05-19T15:58:28.950Z,65.12
2023-05-19T16:00:56.711Z,66.14
2023-05-19T16:03:24.090Z,66.26
2023-05-19T16:05:52.705Z,63.72
2023-05-19T16:08:21.449Z,64.17
2023-05-19T16:10:49.018Z,65.51
2023-05-19T16:13:16.378Z,65.94
2023-05-19T16:15:43.587Z,65.10
2023-05-19T16:18:11.709Z,66.09
2023-05-19T16:20:39.186Z,66.28
2023-05-19T16:23:06.489Z,68.51
2023-05-19T16:25:35.103Z,65.49
2023-05-19T16:28:02.485Z,65.97
2023-05-19T16:30:29.931Z,67.28
2023-05-19T16:32:57.371Z,66.10
2023-05-19T16:35:24.747Z,66.94
2023-05-19T16:37:52.022Z,67.33
2023-05-19T16:40:20.104Z,65.73
2023-05-19T16:42:48.779Z,65.64
2023-05-19T16:45:19.163Z,65.98
2023-05-19T16:47:46.420Z,65.20
2023-05-19T16:50:13.647Z,67.82
2023-05-19T16:52:40.939Z,65.95
2023-05-19T16:55:09.100Z,67.26
2023-05-19T16:57:36.358Z,68.25
2023-05-19T17:00:05.809Z,68.99
2023-05-19T17:02:33.098Z,69.50
2023-05-19T17:05:00.502Z,69.77
2023-05-19T17:07:29.282Z,70.96
2023-05-19T17:09:56.676Z,71.56
2023-05-19T17:12:24.041Z,73.41
2023-05-19T17:14:52.332Z,73.88
2023-05-19T17:17:20.920Z,74.01
2023-05-19T17:19:48.145Z,75.10
2023-05-19T17:22:15.424Z,74.86
2023-05-19T17:24:42.858Z,75.88
2023-05-19T17:27:10.095Z,75.71
2023-05-19T17:29:37.307Z,75.99
2023-05-19T17:32:05.097Z,75.88
2023-05-19T17:34:33.828Z,76.42
2023-05-19T17:37:01.492Z,76.70
2023-05-19T17:39:28.760Z,77.23
2023-05-19T17:41:56.474Z,77.95
2023-05-19T17:44:23.849Z,77.89
2023-05-19T17:46:51.749Z,77.92
2023-05-19T17:49:19.046Z,77.90
2023-05-19T17:51:47.886Z,78.39
2023-05-19T17:54:15.730Z,78.58
2023-05-19T17:56:45.737Z,78.86
2023-05-19T17:59:13.674Z,79.24
2023-05-19T18:01:41.318Z,79.29
2023-05-19T18:04:09.593Z,79.74
2023-05-19T18:06:38.580Z,80.32
2023-05-19T18:09:11.024Z,80.53
2023-05-19T18:11:38.239Z,80.84
2023-05-19T18:14:05.786Z,81.52
2023-05-19T18:16:33.535Z,82.03
2023-05-19T18:19:01.065Z,82.44
2023-05-19T18:21:28.385Z,82.85
2023-05-19T18:23:55.824Z,83.23
2023-05-19T18:26:24.435Z,83.80
2023-05-19T18:28:51.656Z,84.07
2023-05-19T18:31:19.945Z,84.78
2023-05-19T18:33:47.684Z,85.35
2023-05-19T18:36:17.813Z,85.71
2023-05-19T18:38:45.178Z,85.94
2023-05-19T18:41:12.622Z,85.81
2023-05-19T18:43:41.214Z,86.29
2023-05-19T18:46:08.558Z,86.55
2023-05-19T18:48:36.249Z,86.67
2023-05-19T18:51:03.941Z,86.94
2023-05-19T18:53:33.766Z,87.19
2023-05-19T18:56:01.002Z,87.41
2023-05-19T18:58:28.428Z,87.81
2023-05-19T19:00:57.374Z,88.24
2023-05-19T19:03:24.996Z,88.13
2023-05-19T19:05:55.701Z,88.02
2023-05-19T19:08:23.569Z,88.79
2023-05-19T19:10:51.811Z,89.17
2023-05-19T19:13:19.220Z,89.31
2023-05-19T19:15:46.835Z,89.58
2023-05-19T19:18:15.892Z,90.12
2023-05-19T19:20:43.160Z,90.10
2023-05-19T19:23:10.379Z,90.39
2023-05-19T19:25:37.820Z,90.28
2023-05-19T19:28:05.140Z,90.20
2023-05-19T19:30:32.656Z,90.93
2023-05-19T19:33:00.343Z,91.47
2023-05-19T19:35:29.054Z,91.42
2023-05-19T19:37:56.838Z,91.66
2023-05-19T19:40:25.046Z,91.61
2023-05-19T19:42:52.282Z,93.03
2023-05-19T19:45:20.955Z,92.41
2023-05-19T19:47:48.243Z,92.44
2023-05-19T19:50:15.756Z,92.82
2023-05-19T19:52:44.337Z,92.38
2023-05-19T19:55:11.747Z,92.75
2023-05-19T19:57:38.977Z,93.16
2023-05-19T20:00:10.143Z,93.04
2023-05-19T20:02:45.523Z,93.37
2023-05-19T20:05:22.967Z,92.39
2023-05-19T20:07:51.607Z,91.92
2023-05-19T20:10:18.912Z,92.17
2023-05-19T20:12:47.944Z,92.73
2023-05-19T20:15:15.678Z,93.04
2023-05-19T20:17:42.929Z,93.96
2023-05-19T20:20:12.388Z,93.81
2023-05-19T20:22:39.640Z,93.88
2023-05-19T20:25:09.196Z,93.58
2023-05-19T20:27:36.391Z,93.59
2023-05-19T20:30:03.824Z,93.07
2023-05-19T20:32:31.130Z,92.97
2023-05-19T20:34:58.565Z,92.92
2023-05-19T20:37:25.953Z,92.90
2023-05-19T20:39:53.230Z,92.85
2023-05-19T20:42:21.839Z,93.32
2023-05-19T20:44:49.113Z,93.11
2023-05-19T20:47:16.360Z,93.81
2023-05-19T20:49:43.642Z,94.30
2023-05-19T20:52:10.998Z,94.46
2023-05-19T20:54:38.265Z,93.73
2023-05-19T20:57:09.238Z,94.05
2023-05-19T20:59:37.955Z,94.18
2023-05-19T21:02:06.494Z,94.35
2023-05-19T21:04:34.422Z,94.50
2023-05-19T21:07:01.702Z,95.20
2023-05-19T21:09:29.016Z,95.31
2023-05-19T21:11:56.371Z,95.30
2023-05-19T21:14:25.429Z,94.91
2023-05-19T21:16:56.625Z,94.39
2023-05-19T21:19:24.035Z,94.69
2023-05-19T21:21:51.269Z,95.10
2023-05-19T21:24:18.536Z,94.87
2023-05-19T21:26:45.778Z,95.45
2023-05-19T21:29:13.116Z,95.45
2023-05-19T21:31:40.465Z,95.29
2023-05-19T21:34:09.234Z,95.34
2023-05-19T21:36:36.596Z,94.81
2023-05-19T21:39:04.669Z,94.50
2023-05-19T21:41:32.564Z,95.00
2023-05-19T21:43:59.899Z,95.15
2023-05-19T21:46:29.193Z,95.27
2023-05-19T21:48:56.502Z,95.32
2023-05-19T21:51:25.200Z,94.77
2023-05-19T21:53:52.626Z,94.64
2023-05-19T21:56:19.910Z,94.49
2023-05-19T21:58:47.139Z,94.33
2023-05-19T22:01:14.740Z,94.53
2023-05-19T22:03:42.249Z,94.39
2023-05-19T22:06:09.612Z,94.22
2023-05-19T22:08:38.193Z,94.12
2023-05-19T22:11:05.703Z,94.46
2023-05-19T22:13:33.980Z,94.69
2023-05-19T22:16:01.494Z,94.87
2023-05-19T22:18:28.890Z,94.77
2023-05-19T22:20:56.180Z,94.81
2023-05-19T22:23:23.424Z,94.83
2023-05-19T22:25:52.050Z,95.03
2023-05-19T22:28:19.340Z,95.15
2023-05-19T22:30:46.720Z,94.78
2023-05-19T22:33:14.096Z,94.62
2023-05-19T22:35:42.627Z,94.63
2023-05-19T22:38:10.701Z,94.75
2023-05-19T22:40:38.189Z,94.68
2023-05-19T22:43:06.880Z,94.92
2023-05-19T22:45:34.687Z,94.75
2023-05-19T22:48:02.300Z,94.92
2023-05-19T22:50:29.584Z,95.13
2023-05-19T22:52:56.848Z,95.59
2023-05-19T22:55:24.111Z,95.68
2023-05-19T22:57:51.472Z,95.51
2023-05-19T23:00:21.088Z,95.49
2023-05-19T23:02:48.397Z,95.46
2023-05-19T23:05:15.832Z,95.51
2023-05-19T23:07:43.021Z,95.66
2023-05-19T23:10:11.090Z,95.54
2023-05-19T23:12:38.426Z,95.54
2023-05-19T23:15:07.011Z,95.83
2023-05-19T23:17:35.722Z,95.84
2023-05-19T23:20:03.801Z,95.78
2023-05-19T23:22:32.151Z,95.08
2023-05-19T23:25:02.175Z,94.94
2023-05-19T23:27:29.492Z,95.49
2023-05-19T23:29:56.988Z,95.72
2023-05-19T23:32:24.319Z,95.78
2023-05-19T23:34:53.047Z,95.61
2023-05-19T23:37:20.275Z,95.80
2023-05-19T23:39:47.550Z,95.97
2023-05-19T23:42:14.783Z,95.78
2023-05-19T23:44:42.058Z,95.71
2023-05-19T23:47:09.410Z,95.54
2023-05-19T23:49:36.669Z,95.21
2023-05-19T23:52:05.948Z,95.33
2023-05-19T23:54:33.238Z,95.56
2023-05-19T23:57:02.210Z,95.65
2023-05-19T23:59:29.530Z,95.67
